sensor_id;sensor_type;location;lat;lon;timestamp;temperature;humidity
73875;HTU21D;62209;47.568;7.558;2023-07-08T00:09:44;20.55;89.57
73875;HTU21D;62209;47.568;7.558;2023-07-08T00:24:49;21.70;76.89
73875;HTU21D;62209;47.568;7.558;2023-07-08T00:39:55;21.99;75.18
73875;HTU21D;62209;47.568;7.558;2023-07-08T00:55:03;21.99;75.44
73875;HTU21D;62209;47.568;7.558;2023-07-08T01:10:26;22.46;73.48
73875;HTU21D;62209;47.568;7.558;2023-07-08T01:25:37;22.67;74.92
73875;HTU21D;62209;47.568;7.558;2023-07-08T01:40:49;21.95;85.45
73875;HTU21D;62209;47.568;7.558;2023-07-08T01:55:56;21.36;89.65
73875;HTU21D;62209;47.568;7.558;2023-07-08T02:11:01;20.95;94.04
73875;HTU21D;62209;47.568;7.558;2023-07-08T02:26:07;21.04;98.69
73875;HTU21D;62209;47.568;7.558;2023-07-08T02:41:13;20.34;100.06
73875;HTU21D;62209;47.568;7.558;2023-07-08T02:56:19;20.29;99.50
73875;HTU21D;62209;47.568;7.558;2023-07-08T03:11:26;20.11;102.35
73875;HTU21D;62209;47.568;7.558;2023-07-08T03:26:31;19.60;104.18
73875;HTU21D;62209;47.568;7.558;2023-07-08T03:41:37;19.40;106.82
73875;HTU21D;62209;47.568;7.558;2023-07-08T03:56:43;19.18;107.43
73875;HTU21D;62209;47.568;7.558;2023-07-08T04:11:49;19.36;105.59
73875;HTU21D;62209;47.568;7.558;2023-07-08T04:26:55;19.33;104.02
73875;HTU21D;62209;47.568;7.558;2023-07-08T04:42:00;19.23;106.53
73875;HTU21D;62209;47.568;7.558;2023-07-08T04:57:07;19.15;107.88
73875;HTU21D;62209;47.568;7.558;2023-07-08T05:12:12;19.05;107.27
73875;HTU21D;62209;47.568;7.558;2023-07-08T05:27:18;19.07;106.40
73875;HTU21D;62209;47.568;7.558;2023-07-08T05:42:24;19.13;106.45
73875;HTU21D;62209;47.568;7.558;2023-07-08T05:57:30;19.14;105.44
73875;HTU21D;62209;47.568;7.558;2023-07-08T06:12:36;19.20;106.75
73875;HTU21D;62209;47.568;7.558;2023-07-08T06:27:42;19.33;107.23
73875;HTU21D;62209;47.568;7.558;2023-07-08T06:42:48;19.42;106.86
73875;HTU21D;62209;47.568;7.558;2023-07-08T06:57:53;19.32;106.79
73875;HTU21D;62209;47.568;7.558;2023-07-08T07:12:59;19.28;106.89
73875;HTU21D;62209;47.568;7.558;2023-07-08T07:28:05;19.56;105.31
73875;HTU21D;62209;47.568;7.558;2023-07-08T07:43:11;19.69;104.92
73875;HTU21D;62209;47.568;7.558;2023-07-08T07:58:17;19.48;104.18
73875;HTU21D;62209;47.568;7.558;2023-07-08T08:13:23;19.62;103.19
73875;HTU21D;62209;47.568;7.558;2023-07-08T08:28:28;19.83;104.47
73875;HTU21D;62209;47.568;7.558;2023-07-08T08:43:35;20.41;103.88
73875;HTU21D;62209;47.568;7.558;2023-07-08T08:58:43;21.14;102.25
73875;HTU21D;62209;47.568;7.558;2023-07-08T09:13:52;22.13;98.73
73875;HTU21D;62209;47.568;7.558;2023-07-08T09:28:58;22.49;94.94
73875;HTU21D;62209;47.568;7.558;2023-07-08T09:44:05;23.42;92.40
73875;HTU21D;62209;47.568;7.558;2023-07-08T09:59:19;24.84;84.52
73875;HTU21D;62209;47.568;7.558;2023-07-08T10:14:29;25.00;84.87
73875;HTU21D;62209;47.568;7.558;2023-07-08T10:29:51;25.27;84.71
73875;HTU21D;62209;47.568;7.558;2023-07-08T10:45:06;25.40;84.26
73875;HTU21D;62209;47.568;7.558;2023-07-08T11:00:19;25.34;81.97
73875;HTU21D;62209;47.568;7.558;2023-07-08T11:15:33;25.15;84.37
73875;HTU21D;62209;47.568;7.558;2023-07-08T11:30:50;25.08;84.51
73875;HTU21D;62209;47.568;7.558;2023-07-08T11:45:57;25.89;81.46
73875;HTU21D;62209;47.568;7.558;2023-07-08T12:01:17;26.78;79.11
73875;HTU21D;62209;47.568;7.558;2023-07-08T12:16:31;28.34;75.70
73875;HTU21D;62209;47.568;7.558;2023-07-08T12:31:37;29.26;73.03
73875;HTU21D;62209;47.568;7.558;2023-07-08T12:46:46;30.48;68.42
73875;HTU21D;62209;47.568;7.558;2023-07-08T13:01:52;31.84;66.37
73875;HTU21D;62209;47.568;7.558;2023-07-08T13:16:58;31.15;68.04
73875;HTU21D;62209;47.568;7.558;2023-07-08T13:32:05;31.42;67.39
73875;HTU21D;62209;47.568;7.558;2023-07-08T13:47:23;31.69;67.13
73875;HTU21D;62209;47.568;7.558;2023-07-08T14:02:32;31.74;65.12
73875;HTU21D;62209;47.568;7.558;2023-07-08T14:17:39;31.87;66.69
73875;HTU21D;62209;47.568;7.558;2023-07-08T14:32:45;31.87;64.08
73875;HTU21D;62209;47.568;7.558;2023-07-08T14:47:51;32.08;61.18
73875;HTU21D;62209;47.568;7.558;2023-07-08T15:02:56;31.64;59.22
73875;HTU21D;62209;47.568;7.558;2023-07-08T15:18:05;31.54;61.35
73875;HTU21D;62209;47.568;7.558;2023-07-08T15:33:16;31.51;63.89
73875;HTU21D;62209;47.568;7.558;2023-07-08T15:48:22;31.15;61.47
73875;HTU21D;62209;47.568;7.558;2023-07-08T16:03:28;31.64;59.21
73875;HTU21D;62209;47.568;7.558;2023-07-08T16:18:35;31.12;61.38
73875;HTU21D;62209;47.568;7.558;2023-07-08T16:33:41;30.98;61.68
73875;HTU21D;62209;47.568;7.558;2023-07-08T16:48:46;30.84;60.49
73875;HTU21D;62209;47.568;7.558;2023-07-08T17:03:52;30.26;62.60
73875;HTU21D;62209;47.568;7.558;2023-07-08T17:18:59;30.11;61.99
73875;HTU21D;62209;47.568;7.558;2023-07-08T17:34:04;29.89;62.52
73875;HTU21D;62209;47.568;7.558;2023-07-08T17:49:12;29.68;62.03
73875;HTU21D;62209;47.568;7.558;2023-07-08T18:04:18;29.34;62.21
73875;HTU21D;62209;47.568;7.558;2023-07-08T18:19:24;29.13;61.68
73875;HTU21D;62209;47.568;7.558;2023-07-08T18:34:30;28.67;63.60
73875;HTU21D;62209;47.568;7.558;2023-07-08T18:49:35;28.25;67.20
73875;HTU21D;62209;47.568;7.558;2023-07-08T19:04:41;27.68;68.04
73875;HTU21D;62209;47.568;7.558;2023-07-08T19:19:46;27.13;70.03
73875;HTU21D;62209;47.568;7.558;2023-07-08T19:34:51;26.40;75.35
73875;HTU21D;62209;47.568;7.558;2023-07-08T19:49:57;25.58;82.79
73875;HTU21D;62209;47.568;7.558;2023-07-08T20:05:03;25.07;87.54
73875;HTU21D;62209;47.568;7.558;2023-07-08T20:20:19;24.38;89.86
73875;HTU21D;62209;47.568;7.558;2023-07-08T20:35:26;23.97;91.59
73875;HTU21D;62209;47.568;7.558;2023-07-08T20:50:33;23.27;92.30
73875;HTU21D;62209;47.568;7.558;2023-07-08T21:05:39;23.36;91.39
73875;HTU21D;62209;47.568;7.558;2023-07-08T21:20:44;22.79;93.29
73875;HTU21D;62209;47.568;7.558;2023-07-08T21:35:50;23.01;90.47
73875;HTU21D;62209;47.568;7.558;2023-07-08T21:50:57;23.10;90.12
73875;HTU21D;62209;47.568;7.558;2023-07-08T22:06:03;23.00;90.79
73875;HTU21D;62209;47.568;7.558;2023-07-08T22:21:10;22.71;91.56
73875;HTU21D;62209;47.568;7.558;2023-07-08T22:36:19;22.58;92.08
73875;HTU21D;62209;47.568;7.558;2023-07-08T22:51:25;22.40;92.33
73875;HTU21D;62209;47.568;7.558;2023-07-08T23:06:32;22.10;92.48
73875;HTU21D;62209;47.568;7.558;2023-07-08T23:21:37;22.11;92.89
73875;HTU21D;62209;47.568;7.558;2023-07-08T23:36:44;21.89;93.06
73875;HTU21D;62209;47.568;7.558;2023-07-08T23:51:52;21.65;93.23
